Карточка аэропорта UAKK

Внимание!
Информация на этой странице в стадии наполнения.
Если вы не увидели какой-то информации, или заметили неточность - пожалуйста сообщите нам!
Спасибо!
Команда RU-STAFF
Название аэропортаКараганда
Название аэропорта (англ.)Karaganda
Превышение1768 ft. (538.9 m.)
Координаты49°40.302', 73°20.118'
Высота перехода10000ft
Эшелон переходаFL120, QNH<733:FL130
Коды ответчика0630-0637, 7220-7227
Зона ОрВДАстана РПИ (UACN)
Данные METARUAKK 191230Z 33008MPS 9999 BKN050CB 22/15 Q1001 NOSIG RMK QFE705/0940
Проноз погоды (TAF)UAKK 191100Z 1912/2012 VRB02MPS 9999 BKN030CB BKN100 TX25/2010Z TN13/1924Z TEMPO 1912/1918 32005MPS 3100 -SHRA BKN020CB PROB40 1912/1918 TS BECMG 1918/1920 02005MPS TEMPO 1918/2002 5000 BR BKN011
NOTAMshow/hide NOTAM
AWOS   TABLE

Информация о ВПП

ВПП Длина ВПП (м.) Покрытие Курс ВПП Частота ILS
053601Железобетон50109.9
233601Железобетон230111.7

Диспетчерские позиции




Спутниковое изображение